Home > Products > Valid Products > MTR

000
SAUS43 KEAX 301153
MTRCDJ
METAR KCDJ 301152Z AUTO 36003KT M05/M08 A3056 RMK AO1 SLP364
T10501083 11006 21050 53005





000
SAUS43 KEAX 301053
MTRCDJ
METAR KCDJ 301052Z AUTO 01003KT M04/M08 A3055 RMK AO1 SLP360
T10441078





000
SAUS43 KEAX 300953
MTRCDJ
METAR KCDJ 300952Z AUTO 35003KT M03/M07 A3055 RMK AO1 SLP360
T10331067





000
SAUS43 KEAX 300853
MTRCDJ
METAR KCDJ 300852Z AUTO 34003KT M03/M07 A3054 RMK AO1 SLP356
T10281067 53002





000
SAUS43 KEAX 300753
MTRCDJ
METAR KCDJ 300752Z AUTO 00000KT M02/M06 A3053 RMK AO1 SLP352
T10171061





000
SAUS43 KEAX 300653
MTRCDJ
METAR KCDJ 300652Z AUTO 33003KT M01/M06 A3053 RMK AO1 SLP351
T10111061





000
SAUS43 KEAX 300553
MTRCDJ
METAR KCDJ 300552Z AUTO 33006KT M01/M06 A3054 RMK AO1 SLP353
T10061056 10028 21011 401111011 51015





000
SAUS43 KEAX 300453
MTRCDJ
METAR KCDJ 300452Z AUTO 31003KT M01/M05 A3053 RMK AO1 SLP350
T10111050





000
SAUS43 KEAX 300353
MTRCDJ
METAR KCDJ 300352Z AUTO 30004KT 01/M04 A3051 RMK AO1 SLP345
T00061044





000
SAUS43 KEAX 300253
MTRCDJ
METAR KCDJ 300252Z AUTO 33007KT 01/M05 A3049 RMK AO1 SLP338
T00111050 51017





000
SAUS43 KEAX 300153
MTRCDJ
METAR KCDJ 300152Z AUTO 34007KT 02/M05 A3048 RMK AO1 SLP335
T00171050





000
SAUS43 KEAX 300053
MTRCDJ
METAR KCDJ 300052Z AUTO 32010G20KT 02/M04 A3047 RMK AO1 SLP327
T00221044





000
SAUS43 KEAX 292353
MTRCDJ
METAR KCDJ 292352Z AUTO 33013G20KT 03/M03 A3044 RMK AO1 SLP320
T00281033 10050 20028 53028





000
SAUS43 KEAX 292254
MTRCDJ
METAR KCDJ 292252Z AUTO 32009G17KT 260V350 04/M03 A3040 RMK AO1
SLP306 T00391033





000
SAUS43 KEAX 292153
MTRCDJ
METAR KCDJ 292152Z AUTO 32008G16KT 04/M03 A3038 RMK AO1 SLP297
T00441033





000
SAUS43 KEAX 292153
MTRCDJ
METAR KCDJ 292152Z AUTO 32008G16KT 04/M03 A3038 RMK AO1 SLP297
T00441033





000
SAUS43 KEAX 292053
MTRCDJ
METAR KCDJ 292052Z AUTO 33011G22KT 04/M03 A3036 RMK AO1 PK WND
31026/2034 SLP289 T00441028 53018





000
SAUS43 KEAX 291953
MTRCDJ
METAR KCDJ 291952Z AUTO 32015G20KT 05/M02 A3032 RMK AO1 SLP275
T00501017





000
SAUS43 KEAX 291853
MTRCDJ
METAR KCDJ 291852Z AUTO 33012G25KT 04/M02 A3031 RMK AO1 SLP272
T00441017





000
SAUS43 KEAX 291753
MTRCDJ
METAR KCDJ 291752Z AUTO 33008G16KT 04/M01 A3030 RMK AO1 SLP267
T00441011 10044 20033 51028





000
SAUS43 KEAX 291653
MTRCDJ
METAR KCDJ 291652Z AUTO 31014G21KT 04/M01 A3029 RMK AO1 SLP261
T00391006





000
SAUS43 KEAX 291553
MTRCDJ
METAR KCDJ 291552Z AUTO 33011KT 04/M01 A3025 RMK AO1 SLP250
T00391011





000
SAUS43 KEAX 291453
MTRCDJ
METAR KCDJ 291452Z AUTO 32009G20KT 04/M02 A3022 RMK AO1 SLP238
T00391017 51043





000
SAUS43 KEAX 291353
MTRCDJ
METAR KCDJ 291352Z AUTO 31016G23KT 04/M01 A3018 RMK AO1 SLP224
T00391006





000
SAUS43 KEAX 291253
MTRCDJ
METAR KCDJ 291252Z AUTO 33013G21KT 04/M02 A3013 RMK AO1 PK WND
32027/1204 SLP205 T00441017





000
SAUS43 KEAX 291153
MTRCDJ
METAR KCDJ 291152Z AUTO 32013G22KT 04/00 A3009 RMK AO1 PK WND
31028/1106 SLP191 T00390000 10111 20039 51043





000
SAUS43 KEAX 291053
MTRCDJ
METAR KCDJ 291052Z AUTO 33009G20KT 05/01 A3005 RMK AO1 PK WND
30029/1013 SLP177 T00500011





000
SAUS43 KEAX 290953
MTRCDJ
METAR KCDJ 290952Z AUTO 32011G27KT 06/01 A3002 RMK AO1 PK WND
31030/0935 SLP165 T00560006





000
SAUS43 KEAX 290853
MTRCDJ
METAR KCDJ 290852Z AUTO 33008G23KT 06/01 A2996 RMK AO1 PK WND
33029/0804 PRESRR SLP145 T00610011 53057





000
SAUS43 KEAX 290753
MTRCDJ
METAR KCDJ 290752Z AUTO 34014G21KT 07/02 A2989 RMK AO1 PK WND
32028/0710 SLP121 T00720017





000
SAUS43 KEAX 290653
MTRCDJ
METAR KCDJ 290652Z AUTO 32013G21KT 09/03 A2984 RMK AO1 PK WND
31026/0625 SLP103 T00890028





000
SAUS43 KEAX 290553
MTRCDJ
METAR KCDJ 290552Z AUTO 31009G21KT 11/03 A2979 RMK AO1 SLP088
T01110028 10167 20106 401890006 53025





000
SAUS43 KEAX 290453
MTRCDJ
METAR KCDJ 290452Z AUTO VRB04KT 13/03 A2975 RMK AO1 SLP074 T01280028





000
SAUS43 KEAX 290353
MTRCDJ
METAR KCDJ 290352Z AUTO 22004KT 11/04 A2972 RMK AO1 SLP070 T01110039





000
SAUS43 KEAX 290253
MTRCDJ
METAR KCDJ 290252Z AUTO 21005KT 13/04 A2971 RMK AO1 SLP066 T01280044
53006





000
SAUS43 KEAX 290153
MTRCDJ
METAR KCDJ 290152Z AUTO 20007KT 14/05 A2970 RMK AO1 SLP061 T01440050





000
SAUS43 KEAX 290053
MTRCDJ
METAR KCDJ 290052Z AUTO 17008G16KT 16/05 A2970 RMK AO1 SLP060
T01610050





000
SAUS43 KEAX 290053
MTRCDJ
METAR KCDJ 290052Z AUTO 17008G16KT 16/05 A2970 RMK AO1 SLP060
T01610050





000
SAUS43 KEAX 282353
MTRCDJ
METAR KCDJ 282352Z AUTO 16010KT 17/05 A2969 RMK AO1 SLP059 T01670050
10189 20122 56026





000
SAUS43 KEAX 282253
MTRCDJ
METAR KCDJ 282252Z AUTO 16009G17KT 18/05 A2971 RMK AO1 SLP063
T01830050





000
SAUS43 KEAX 282153
MTRCDJ
METAR KCDJ 282152Z AUTO 16010G19KT 19/05 A2972 RMK AO1 SLP067
T01890050





000
SAUS43 KEAX 282053
MTRCDJ
METAR KCDJ 282052Z AUTO 16010G18KT 18/04 A2977 RMK AO1 SLP084
T01780044 56044





000
SAUS43 KEAX 281953
MTRCDJ
METAR KCDJ 281952Z AUTO 17014G21KT 17/04 A2980 RMK AO1 SLP094
T01670044





000
SAUS43 KEAX 281853
MTRCDJ
METAR KCDJ 281852Z AUTO 16010G18KT 16/04 A2984 RMK AO1 SLP108
T01560044





000
SAUS43 KEAX 281753
MTRCDJ
METAR KCDJ 281752Z AUTO 16010KT 12/03 A2991 RMK AO1 SLP133 T01220033
10122 20006 58031





000
SAUS43 KEAX 281653
MTRCDJ
METAR KCDJ 281652Z AUTO 16011KT 09/02 A2995 RMK AO1 SLP150 T00890022





000
SAUS43 KEAX 281553
MTRCDJ
METAR KCDJ 281552Z AUTO 14007G16KT 04/01 A2998 RMK AO1 SLP162
T00440006





000
SAUS43 KEAX 281553
MTRCDJ
METAR KCDJ 281552Z AUTO 14007G16KT 04/01 A2998 RMK AO1 SLP162
T00440006





000
SAUS43 KEAX 281453
MTRCDJ
METAR KCDJ 281452Z AUTO 14010KT 02/M01 A3000 RMK AO1 SLP169
T00221006 58010





000
SAUS43 KEAX 281354
MTRCDJ
METAR KCDJ 281352Z AUTO 12009KT 01/M02 A3002 RMK AO1 SLP176
T00061017





000
SAUS43 KEAX 281253
MTRCDJ
METAR KCDJ 281252Z AUTO 13007KT 01/M02 A3003 RMK AO1 SLP178
T00061017





000
SAUS43 KEAX 281153
MTRCDJ
METAR KCDJ 281152Z AUTO 12008KT 01/M02 A3003 RMK AO1 SLP178
T00061017 10017 20006 56018





000
SAUS43 KEAX 281053
MTRCDJ
METAR KCDJ 281052Z AUTO 12007KT 01/M02 A3004 RMK AO1 SLP182
T00061017





000
SAUS43 KEAX 280953
MTRCDJ
METAR KCDJ 280952Z AUTO 11009KT 01/M02 A3006 RMK AO1 SLP188
T00061017





000
SAUS43 KEAX 280953
MTRCDJ
METAR KCDJ 280952Z AUTO 11009KT 01/M02 A3006 RMK AO1 SLP188
T00061017





000
SAUS43 KEAX 280853
MTRCDJ
METAR KCDJ 280852Z AUTO 12006KT 01/M02 A3008 RMK AO1 SLP195
T00061017 56015





000
SAUS43 KEAX 280753
MTRCDJ
METAR KCDJ 280752Z AUTO 12006KT 01/M02 A3010 RMK AO1 SLP199
T00111017





000
SAUS43 KEAX 280753
MTRCDJ
METAR KCDJ 280752Z AUTO 12006KT 01/M02 A3010 RMK AO1 SLP199
T00111017





000
SAUS43 KEAX 280653
MTRCDJ
METAR KCDJ 280652Z AUTO 12007KT 01/M01 A3010 RMK AO1 SLP202
T00111011





000
SAUS43 KEAX 280653
MTRCDJ
METAR KCDJ 280652Z AUTO 12007KT 01/M01 A3010 RMK AO1 SLP202
T00111011





000
SAUS43 KEAX 280553
MTRCDJ
METAR KCDJ 280552Z AUTO 13007KT 02/M01 A3013 RMK AO1 SLP211
T00221011 10067 20017 401061022 56012





000
SAUS43 KEAX 280553
MTRCDJ
METAR KCDJ 280552Z AUTO 13007KT 02/M01 A3013 RMK AO1 SLP211
T00221011 10067 20017 401061022 56012





000
SAUS43 KEAX 280454
MTRCDJ
METAR KCDJ 280452Z AUTO 12005KT 03/M01 A3014 RMK AO1 SLP214
T00281011





000
SAUS43 KEAX 280353
MTRCDJ
METAR KCDJ 280352Z AUTO 11005KT 03/M01 A3015 RMK AO1 SLP218
T00331006





000
SAUS43 KEAX 280353
MTRCDJ
METAR KCDJ 280352Z AUTO 11005KT 03/M01 A3015 RMK AO1 SLP218
T00331006





000
SAUS43 KEAX 280253
MTRCDJ
METAR KCDJ 280252Z AUTO 12005KT 04/M01 A3016 RMK AO1 SLP224
T00391006 53008





000
SAUS43 KEAX 280253
MTRCDJ
METAR KCDJ 280252Z AUTO 12005KT 04/M01 A3016 RMK AO1 SLP224
T00391006 53008





000
SAUS43 KEAX 280153
MTRCDJ
METAR KCDJ 280152Z AUTO 10004KT 04/00 A3015 RMK AO1 SLP223 T00440000





000
SAUS43 KEAX 280054
MTRCDJ
METAR KCDJ 280052Z AUTO 11006KT 06/00 A3014 RMK AO1 SLP219 T00560000





000
SAUS43 KEAX 272353
MTRCDJ
METAR KCDJ 272352Z AUTO 11004KT 07/00 A3014 RMK AO1 SLP216 T00670000
10106 20067 50000





000
SAUS43 KEAX 272253
MTRCDJ
METAR KCDJ 272252Z AUTO 12005KT 09/01 A3014 RMK AO1 SLP215 T00890006





000
SAUS43 KEAX 272154
MTRCDJ
METAR KCDJ 272152Z AUTO 10006KT 10/01 A3015 RMK AO1 SLP216 T01000006





000
SAUS43 KEAX 272053
MTRCDJ
METAR KCDJ 272052Z AUTO 13003KT 10/01 A3014 RMK AO1 SLP214 T01000006
55015





000
SAUS43 KEAX 271953
MTRCDJ
METAR KCDJ 271952Z AUTO 00000KT 09/01 A3014 RMK AO1 SLP211 T00940011





000
SAUS43 KEAX 271853
MTRCDJ
METAR KCDJ 271852Z AUTO 16005KT 08/01 A3016 RMK AO1 SLP221 T00830006





000
SAUS43 KEAX 271753
MTRCDJ
METAR KCDJ 271752Z AUTO VRB03KT 08/01 A3018 RMK AO1 SLP227 T00780006
10078 21022 50003





000
SAUS43 KEAX 271653
MTRCDJ
METAR KCDJ 271652Z AUTO 07005KT 06/01 A3020 RMK AO1 SLP234 T00610006





000
SAUS43 KEAX 271553
MTRCDJ
METAR KCDJ 271552Z AUTO 00000KT 05/01 A3019 RMK AO1 SLP230 T00500006





000
SAUS43 KEAX 271454
MTRCDJ
METAR KCDJ 271452Z AUTO 31004KT 03/00 A3017 RMK AO1 SLP226 T00280000
51024





000
SAUS43 KEAX 271353
MTRCDJ
METAR KCDJ 271352Z AUTO 00000KT M02/M03 A3015 RMK AO1 SLP220
T10171033





000
SAUS43 KEAX 271253
MTRCDJ
METAR KCDJ 271252Z AUTO 00000KT M02/M03 A3014 RMK AO1 SLP214
T10171033





    US Dept of Commerce
    National Oceanic and Atmospheric Administration
    National Weather Service
    1325 East West Highway
    Silver Spring, MD 20910
    Page Author: NWS Internet Services Team
Disclaimer
Information Quality
Credits
Glossary
Privacy Policy
Freedom of Information Act (FOIA)
About Us
Career Opportunities